createdAt,value
2022-07-27T00:00:06.548Z,72.14
2022-07-27T00:03:05.321Z,72.00
2022-07-27T00:05:40.053Z,72.15
2022-07-27T00:08:13.657Z,71.95
2022-07-27T00:10:46.824Z,71.91
2022-07-27T00:13:20.542Z,71.92
2022-07-27T00:15:54.169Z,72.08
2022-07-27T00:18:27.828Z,72.05
2022-07-27T00:21:01.247Z,71.96
2022-07-27T00:23:34.620Z,71.80
2022-07-27T00:26:08.331Z,71.89
2022-07-27T00:28:41.888Z,71.93
2022-07-27T00:31:15.104Z,71.83
2022-07-27T00:33:48.545Z,71.75
2022-07-27T00:36:21.690Z,71.80
2022-07-27T00:38:55.024Z,71.93
2022-07-27T00:41:28.312Z,71.93
2022-07-27T00:44:05.534Z,71.80
2022-07-27T00:46:38.851Z,71.64
2022-07-27T00:49:13.165Z,71.87
2022-07-27T00:51:47.513Z,71.87
2022-07-27T00:54:21.294Z,71.68
2022-07-27T00:56:54.473Z,71.80
2022-07-27T00:59:29.052Z,71.71
2022-07-27T01:02:02.426Z,71.85
2022-07-27T01:04:36.049Z,71.72
2022-07-27T01:07:10.024Z,71.60
2022-07-27T01:09:58.737Z,71.62
2022-07-27T01:12:33.656Z,71.68
2022-07-27T01:15:08.898Z,71.67
2022-07-27T01:17:42.668Z,71.76
2022-07-27T01:20:15.955Z,71.62
2022-07-27T01:22:49.411Z,71.55
2022-07-27T01:25:23.219Z,71.55
2022-07-27T01:27:57.312Z,71.37
2022-07-27T01:30:32.069Z,71.42
2022-07-27T01:33:07.228Z,71.34
2022-07-27T01:35:41.263Z,71.33
2022-07-27T01:38:15.434Z,71.23
2022-07-27T01:40:48.738Z,71.20
2022-07-27T01:43:22.738Z,71.17
2022-07-27T01:45:56.648Z,71.16
2022-07-27T01:48:30.183Z,71.13
2022-07-27T01:51:03.694Z,71.00
2022-07-27T01:53:37.206Z,71.05
2022-07-27T01:56:14.730Z,70.91
2022-07-27T01:58:48.565Z,70.71
2022-07-27T02:01:23.092Z,70.87
2022-07-27T02:03:57.233Z,70.70
2022-07-27T02:06:30.946Z,70.79
2022-07-27T02:09:04.496Z,70.77
2022-07-27T02:11:55.916Z,70.72
2022-07-27T02:14:29.340Z,70.85
2022-07-27T02:17:02.685Z,70.87
2022-07-27T02:19:36.863Z,70.83
2022-07-27T02:22:10.014Z,70.81
2022-07-27T02:24:43.576Z,70.93
2022-07-27T02:27:16.642Z,70.77
2022-07-27T02:29:50.024Z,70.95
2022-07-27T02:32:23.809Z,70.82
2022-07-27T02:34:57.013Z,70.89
2022-07-27T02:37:30.739Z,71.00
2022-07-27T02:40:04.253Z,70.95
2022-07-27T02:42:37.856Z,70.87
2022-07-27T02:45:12.692Z,71.07
2022-07-27T02:47:46.601Z,71.05
2022-07-27T02:50:19.779Z,71.06
2022-07-27T02:52:53.222Z,71.01
2022-07-27T02:55:26.901Z,71.21
2022-07-27T02:58:00.324Z,70.99
2022-07-27T03:00:34.597Z,70.96
2022-07-27T03:03:07.929Z,71.03
2022-07-27T03:05:41.133Z,71.10
2022-07-27T03:08:14.656Z,70.72
2022-07-27T03:10:48.751Z,70.80
2022-07-27T03:13:23.357Z,70.63
2022-07-27T03:15:56.972Z,70.83
2022-07-27T03:18:30.694Z,70.61
2022-07-27T03:21:04.306Z,70.63
2022-07-27T03:23:40.826Z,70.50
2022-07-27T03:26:14.884Z,70.12
2022-07-27T03:28:48.353Z,70.15
2022-07-27T03:31:21.583Z,70.08
2022-07-27T03:33:54.980Z,70.03
2022-07-27T03:36:28.581Z,69.99
2022-07-27T03:39:06.202Z,69.91
2022-07-27T03:41:39.878Z,69.90
2022-07-27T03:44:13.370Z,69.63
2022-07-27T03:46:47.055Z,69.63
2022-07-27T03:49:20.820Z,69.49
2022-07-27T03:51:54.139Z,69.37
2022-07-27T03:54:28.189Z,69.38
2022-07-27T03:57:02.499Z,69.27
2022-07-27T03:59:35.783Z,69.09
2022-07-27T04:02:09.409Z,68.85
2022-07-27T04:04:42.824Z,68.81
2022-07-27T04:07:16.089Z,68.64
2022-07-27T04:09:49.506Z,68.40
2022-07-27T04:12:24.242Z,68.40
2022-07-27T04:14:58.450Z,68.40
2022-07-27T04:17:53.508Z,68.46
2022-07-27T04:20:25.621Z,68.24
2022-07-27T04:22:59.019Z,68.29
2022-07-27T04:25:32.720Z,68.46
2022-07-27T04:28:06.269Z,68.26
2022-07-27T04:30:39.533Z,68.13
2022-07-27T04:33:13.286Z,67.98
2022-07-27T04:35:47.049Z,67.77
2022-07-27T04:38:20.442Z,67.57
2022-07-27T04:40:58.123Z,67.73
2022-07-27T04:43:32.029Z,67.83
2022-07-27T04:46:11.766Z,67.59
2022-07-27T04:48:49.489Z,67.57
2022-07-27T04:51:23.659Z,67.32
2022-07-27T04:53:58.361Z,67.62
2022-07-27T04:56:32.394Z,67.21
2022-07-27T04:59:05.924Z,67.30
2022-07-27T05:01:39.284Z,67.14
2022-07-27T05:04:13.078Z,67.22
2022-07-27T05:06:47.123Z,67.05
2022-07-27T05:09:22.525Z,66.99
2022-07-27T05:11:56.214Z,66.81
2022-07-27T05:14:29.517Z,66.39
2022-07-27T05:17:02.901Z,66.38
2022-07-27T05:19:40.300Z,66.30
2022-07-27T05:22:14.033Z,66.00
2022-07-27T05:24:47.271Z,66.55
2022-07-27T05:27:20.368Z,67.79
2022-07-27T05:29:53.516Z,67.02
2022-07-27T05:32:27.418Z,64.00
2022-07-27T05:35:00.851Z,60.22
2022-07-27T05:37:34.094Z,58.03
2022-07-27T05:40:09.331Z,57.18
2022-07-27T05:42:45.536Z,56.40
2022-07-27T05:45:19.365Z,56.02
2022-07-27T05:47:54.710Z,55.83
2022-07-27T05:50:28.170Z,55.56
2022-07-27T05:53:01.591Z,55.36
2022-07-27T05:55:34.916Z,55.20
2022-07-27T05:58:07.900Z,55.49
2022-07-27T06:00:41.094Z,55.49
2022-07-27T06:03:14.374Z,54.45
2022-07-27T06:05:47.432Z,53.66
2022-07-27T06:08:20.998Z,53.01
2022-07-27T06:10:54.249Z,53.20
2022-07-27T06:13:28.537Z,52.44
2022-07-27T06:16:02.090Z,51.84
2022-07-27T06:18:35.281Z,51.57
2022-07-27T06:21:08.787Z,51.89
2022-07-27T06:23:42.074Z,51.92
2022-07-27T06:26:15.680Z,51.74
2022-07-27T06:28:48.927Z,51.04
2022-07-27T06:31:22.087Z,51.17
2022-07-27T06:33:56.049Z,50.79
2022-07-27T06:36:33.591Z,50.98
2022-07-27T06:39:07.039Z,50.53
2022-07-27T06:41:40.204Z,50.88
2022-07-27T06:44:13.706Z,50.78
2022-07-27T06:46:49.523Z,51.18
2022-07-27T06:49:23.416Z,51.18
2022-07-27T06:51:56.566Z,50.62
2022-07-27T06:54:29.736Z,50.14
2022-07-27T06:57:02.703Z,50.17
2022-07-27T06:59:43.293Z,49.44
2022-07-27T07:02:17.819Z,48.12
2022-07-27T07:05:02.830Z,46.59
2022-07-27T07:07:35.988Z,45.60
2022-07-27T07:10:11.121Z,44.98
2022-07-27T07:12:44.295Z,45.51
2022-07-27T07:15:18.582Z,43.60
2022-07-27T07:17:51.934Z,42.64
2022-07-27T07:20:25.837Z,42.45
2022-07-27T07:22:59.233Z,42.37
2022-07-27T07:25:32.905Z,41.35
2022-07-27T07:28:06.300Z,40.63
2022-07-27T07:30:39.756Z,39.75
2022-07-27T07:33:12.778Z,39.80
2022-07-27T07:36:12.302Z,40.19
2022-07-27T07:38:39.278Z,40.41
2022-07-27T07:41:12.501Z,41.02
2022-07-27T07:43:46.110Z,41.15
2022-07-27T07:46:19.184Z,40.98
2022-07-27T07:48:53.371Z,41.00
2022-07-27T07:51:26.531Z,41.17
2022-07-27T07:53:59.717Z,41.06
2022-07-27T07:56:33.099Z,41.47
2022-07-27T07:59:06.624Z,41.18
2022-07-27T08:01:39.993Z,40.86
2022-07-27T08:04:13.317Z,41.16
2022-07-27T08:06:46.424Z,41.40
2022-07-27T08:09:21.857Z,41.58
2022-07-27T08:11:55.172Z,41.64
2022-07-27T08:14:28.317Z,41.88
2022-07-27T08:17:01.363Z,42.12
2022-07-27T08:19:39.870Z,42.14
2022-07-27T08:22:13.483Z,42.24
2022-07-27T08:24:46.560Z,41.95
2022-07-27T08:27:19.939Z,42.07
2022-07-27T08:29:53.011Z,42.07
2022-07-27T08:32:28.783Z,41.97
2022-07-27T08:35:02.666Z,41.90
2022-07-27T08:37:36.283Z,42.13
2022-07-27T08:43:05.552Z,41.83
2022-07-27T08:45:42.055Z,42.43
2022-07-27T08:48:18.160Z,43.18
2022-07-27T08:50:52.375Z,42.72
2022-07-27T08:53:26.400Z,42.96
2022-07-27T08:56:19.610Z,42.46
2022-07-27T08:58:52.731Z,42.80
2022-07-27T09:01:26.098Z,43.21
2022-07-27T09:03:59.561Z,42.98
2022-07-27T09:06:53.414Z,42.92
2022-07-27T09:09:27.833Z,43.01
2022-07-27T09:12:12.445Z,43.28
2022-07-27T09:14:51.113Z,43.28
2022-07-27T09:17:48.016Z,43.36
2022-07-27T09:20:22.880Z,43.58
2022-07-27T09:22:57.491Z,43.01
2022-07-27T09:28:34.301Z,42.75
2022-07-27T09:31:11.641Z,42.14
2022-07-27T09:33:50.142Z,42.78
2022-07-27T09:36:25.373Z,42.14
2022-07-27T09:39:03.595Z,42.62
2022-07-27T09:41:49.828Z,42.54
2022-07-27T09:44:42.125Z,42.88
2022-07-27T09:47:28.000Z,42.74
2022-07-27T09:50:21.174Z,42.66
2022-07-27T09:52:54.521Z,43.17
2022-07-27T09:55:28.270Z,42.92
2022-07-27T09:58:02.343Z,43.39
2022-07-27T10:00:35.611Z,43.46
2022-07-27T10:03:09.996Z,43.13
2022-07-27T10:05:44.078Z,42.91
2022-07-27T10:08:17.879Z,43.45
2022-07-27T10:10:51.683Z,42.83
2022-07-27T10:13:26.104Z,41.63
2022-07-27T10:16:00.957Z,41.29
2022-07-27T10:18:44.536Z,40.56
2022-07-27T10:21:31.073Z,40.65
2022-07-27T10:24:06.602Z,40.83
2022-07-27T10:26:41.769Z,41.19
2022-07-27T10:29:22.852Z,41.20
2022-07-27T10:32:03.657Z,41.00
2022-07-27T10:34:42.990Z,40.87
2022-07-27T10:37:18.210Z,41.19
2022-07-27T10:40:15.785Z,41.41
2022-07-27T10:42:54.407Z,41.29
2022-07-27T10:46:00.335Z,41.75
2022-07-27T10:48:48.101Z,41.90
2022-07-27T10:51:38.560Z,41.78
2022-07-27T10:54:24.159Z,41.24
2022-07-27T10:57:00.220Z,41.66
2022-07-27T11:00:11.176Z,41.59
2022-07-27T11:02:46.576Z,40.85
2022-07-27T11:05:58.445Z,40.50
2022-07-27T11:08:35.972Z,40.80
2022-07-27T11:11:08.731Z,41.41
2022-07-27T11:13:41.948Z,41.43
2022-07-27T11:16:24.408Z,41.90
2022-07-27T11:19:01.851Z,41.96
2022-07-27T11:21:37.630Z,42.05
2022-07-27T11:24:14.158Z,42.31
2022-07-27T11:26:50.007Z,42.35
2022-07-27T11:29:25.361Z,42.22
2022-07-27T11:32:01.165Z,42.42
2022-07-27T11:34:36.117Z,42.04
2022-07-27T11:37:19.637Z,41.99
2022-07-27T11:40:05.015Z,41.73
2022-07-27T11:42:53.748Z,42.03
2022-07-27T11:45:33.443Z,41.74
2022-07-27T11:48:10.199Z,41.42
2022-07-27T11:51:00.584Z,41.72
2022-07-27T11:53:34.347Z,41.17
2022-07-27T11:56:08.228Z,41.64
2022-07-27T11:59:14.864Z,41.35
2022-07-27T12:01:52.805Z,40.57
2022-07-27T12:04:31.425Z,40.78
2022-07-27T12:07:11.035Z,40.70
2022-07-27T12:09:48.552Z,40.93
2022-07-27T12:12:23.581Z,41.43
2022-07-27T12:14:58.366Z,41.22
2022-07-27T12:17:33.510Z,40.91
2022-07-27T12:20:09.561Z,41.02
2022-07-27T12:22:44.844Z,41.05
2022-07-27T12:25:33.059Z,41.21
2022-07-27T12:28:06.072Z,41.05
2022-07-27T12:30:41.687Z,40.62
2022-07-27T12:33:30.137Z,41.32
2022-07-27T12:36:05.249Z,40.92
2022-07-27T12:38:46.256Z,41.04
2022-07-27T12:41:29.851Z,41.21
2022-07-27T12:44:10.701Z,41.41
2022-07-27T12:46:59.877Z,41.35
2022-07-27T12:49:36.181Z,41.17
2022-07-27T12:52:13.959Z,41.37
2022-07-27T12:54:47.079Z,41.24
2022-07-27T12:57:33.870Z,41.31
2022-07-27T13:00:17.757Z,41.34
2022-07-27T13:02:50.995Z,41.24
2022-07-27T13:05:24.196Z,41.46
2022-07-27T13:07:57.912Z,41.47
2022-07-27T13:10:31.141Z,40.94
2022-07-27T13:13:04.342Z,40.89
2022-07-27T13:15:37.956Z,40.71
2022-07-27T13:18:23.953Z,40.51
2022-07-27T13:21:02.502Z,40.53
2022-07-27T13:23:38.383Z,41.02
2022-07-27T13:26:11.940Z,41.35
2022-07-27T13:28:45.336Z,41.00
2022-07-27T13:31:18.891Z,40.61
2022-07-27T13:33:52.933Z,40.84
2022-07-27T13:36:26.353Z,40.74
2022-07-27T13:39:00.546Z,41.15
2022-07-27T13:41:34.036Z,41.55
2022-07-27T13:44:10.364Z,41.40
2022-07-27T13:46:49.400Z,41.18
2022-07-27T13:49:23.666Z,40.70
2022-07-27T13:51:57.014Z,40.49
2022-07-27T13:54:30.927Z,40.85
2022-07-27T13:57:04.363Z,40.97
2022-07-27T13:59:37.757Z,41.04
2022-07-27T14:02:11.861Z,41.19
2022-07-27T14:04:45.163Z,41.15
2022-07-27T14:07:18.425Z,41.32
2022-07-27T14:10:09.815Z,40.82
2022-07-27T14:12:43.416Z,41.18
2022-07-27T14:15:17.085Z,41.02
2022-07-27T14:17:50.690Z,40.90
2022-07-27T14:20:24.357Z,41.05
2022-07-27T14:22:57.982Z,40.83
2022-07-27T14:25:32.410Z,40.64
2022-07-27T14:28:06.181Z,41.14
2022-07-27T14:30:40.106Z,41.47
2022-07-27T14:33:13.465Z,41.23
2022-07-27T14:35:46.748Z,41.44
2022-07-27T14:38:26.986Z,41.49
2022-07-27T14:41:04.531Z,41.12
2022-07-27T14:43:38.012Z,40.84
2022-07-27T14:46:11.533Z,40.91
2022-07-27T14:51:38.975Z,41.22
2022-07-27T14:54:12.440Z,41.53
2022-07-27T14:56:45.979Z,41.67
2022-07-27T14:59:19.718Z,41.68
2022-07-27T15:01:54.396Z,41.83
2022-07-27T15:04:28.296Z,41.80
2022-07-27T15:07:02.286Z,41.69
2022-07-27T15:09:36.242Z,41.27
2022-07-27T15:12:10.613Z,41.48
2022-07-27T15:14:44.009Z,41.66
2022-07-27T15:17:17.656Z,41.90
2022-07-27T15:19:52.027Z,41.70
2022-07-27T15:22:25.822Z,41.39
2022-07-27T15:24:59.097Z,41.97
2022-07-27T15:27:32.780Z,42.16
2022-07-27T15:30:07.412Z,42.01
2022-07-27T15:32:40.592Z,42.09
2022-07-27T15:35:14.291Z,42.08
2022-07-27T15:37:54.623Z,42.01
2022-07-27T15:40:41.927Z,42.07
2022-07-27T15:43:17.576Z,42.15
2022-07-27T15:45:52.412Z,42.14
2022-07-27T15:48:26.532Z,41.96
2022-07-27T15:51:00.066Z,42.15
2022-07-27T15:53:33.983Z,42.15
2022-07-27T15:56:07.593Z,42.46
2022-07-27T15:58:41.252Z,42.54
2022-07-27T16:01:14.638Z,42.54
2022-07-27T16:03:48.544Z,42.21
2022-07-27T16:06:22.224Z,42.27
2022-07-27T16:08:55.570Z,42.46
2022-07-27T16:11:29.606Z,42.52
2022-07-27T16:14:03.089Z,42.45
2022-07-27T16:16:36.659Z,42.57
2022-07-27T16:19:14.341Z,42.21
2022-07-27T16:21:53.725Z,42.47
2022-07-27T16:24:31.329Z,42.53
2022-07-27T16:27:08.427Z,42.96
2022-07-27T16:29:41.816Z,42.92
2022-07-27T16:32:15.090Z,42.79
2022-07-27T16:34:48.672Z,42.86
2022-07-27T16:37:22.491Z,42.77
2022-07-27T16:39:55.873Z,42.87
2022-07-27T16:42:29.383Z,42.96
2022-07-27T16:45:02.647Z,42.75
2022-07-27T16:47:36.821Z,43.00
2022-07-27T16:50:11.499Z,43.08
2022-07-27T16:52:44.714Z,42.96
2022-07-27T16:55:18.194Z,42.97
2022-07-27T16:57:51.652Z,43.05
2022-07-27T17:00:25.267Z,42.86
2022-07-27T17:02:58.623Z,42.83
2022-07-27T17:05:32.566Z,43.11
2022-07-27T17:08:06.768Z,43.27
2022-07-27T17:10:40.180Z,43.17
2022-07-27T17:13:15.173Z,43.36
2022-07-27T17:15:49.052Z,43.26
2022-07-27T17:18:23.224Z,43.49
2022-07-27T17:20:57.152Z,43.43
2022-07-27T17:23:35.910Z,43.63
2022-07-27T17:26:10.713Z,43.92
2022-07-27T17:28:44.683Z,43.90
2022-07-27T17:31:19.174Z,43.79
2022-07-27T17:33:53.028Z,44.19
2022-07-27T17:36:27.181Z,44.21
2022-07-27T17:39:02.693Z,44.30
2022-07-27T17:41:36.329Z,44.40
2022-07-27T17:44:10.029Z,44.49
2022-07-27T17:46:43.932Z,44.87
2022-07-27T17:49:17.544Z,45.03
2022-07-27T17:51:51.246Z,45.11
2022-07-27T17:54:24.934Z,45.19
2022-07-27T17:56:58.466Z,45.38
2022-07-27T17:59:37.941Z,45.54
2022-07-27T18:02:13.024Z,45.76
2022-07-27T18:04:47.210Z,45.93
2022-07-27T18:07:20.920Z,46.17
2022-07-27T18:09:55.006Z,46.29
2022-07-27T18:12:29.089Z,46.55
2022-07-27T18:15:20.627Z,46.55
2022-07-27T18:17:54.207Z,46.68
2022-07-27T18:20:27.887Z,46.94
2022-07-27T18:23:00.998Z,47.17
2022-07-27T18:25:34.469Z,47.37
2022-07-27T18:28:08.403Z,47.64
2022-07-27T18:30:41.794Z,47.79
2022-07-27T18:33:15.422Z,47.91
2022-07-27T18:35:49.968Z,47.94
2022-07-27T18:38:23.745Z,48.05
2022-07-27T18:40:57.033Z,48.36
2022-07-27T18:43:30.949Z,48.43
2022-07-27T18:46:04.725Z,48.72
2022-07-27T18:48:38.857Z,48.90
2022-07-27T18:51:12.148Z,49.10
2022-07-27T18:53:45.640Z,49.23
2022-07-27T18:56:19.737Z,49.32
2022-07-27T18:58:55.103Z,49.57
2022-07-27T19:01:28.611Z,49.77
2022-07-27T19:04:02.787Z,49.92
2022-07-27T19:06:37.390Z,50.06
2022-07-27T19:09:11.463Z,50.36
2022-07-27T19:11:46.229Z,50.40
2022-07-27T19:14:23.895Z,50.33
2022-07-27T19:16:58.268Z,50.61
2022-07-27T19:19:32.361Z,50.50
2022-07-27T19:22:07.058Z,50.56
2022-07-27T19:24:42.383Z,50.64
2022-07-27T19:27:17.915Z,50.73
2022-07-27T19:29:52.229Z,50.96
2022-07-27T19:32:27.217Z,51.09
2022-07-27T19:35:01.493Z,51.21
2022-07-27T19:37:36.341Z,51.38
2022-07-27T19:40:41.390Z,51.27
2022-07-27T19:43:07.187Z,51.39
2022-07-27T19:45:42.076Z,51.39
2022-07-27T19:48:16.998Z,51.48
2022-07-27T19:50:51.012Z,51.53
2022-07-27T19:53:25.182Z,51.05
2022-07-27T19:56:00.466Z,50.51
2022-07-27T19:58:34.762Z,50.22
2022-07-27T20:01:10.369Z,50.35
2022-07-27T20:03:52.125Z,50.18
2022-07-27T20:06:29.882Z,50.09
2022-07-27T20:09:08.038Z,50.07
2022-07-27T20:11:40.713Z,49.98
2022-07-27T20:14:14.979Z,49.84
2022-07-27T20:16:51.285Z,49.85
2022-07-27T20:19:27.789Z,49.85
2022-07-27T20:22:02.772Z,49.82
2022-07-27T20:24:38.064Z,49.53
2022-07-27T20:27:12.127Z,49.73
2022-07-27T20:29:46.323Z,49.77
2022-07-27T20:32:19.949Z,49.88
2022-07-27T20:34:54.295Z,50.02
2022-07-27T20:37:28.057Z,50.08
2022-07-27T20:40:02.090Z,49.92
2022-07-27T20:42:35.950Z,49.97
2022-07-27T20:45:16.065Z,50.04
2022-07-27T20:47:50.013Z,50.17
2022-07-27T20:50:23.742Z,50.11
2022-07-27T20:52:58.566Z,50.17
2022-07-27T20:55:33.404Z,50.04
2022-07-27T20:58:06.687Z,49.93
2022-07-27T21:00:40.611Z,50.21
2022-07-27T21:03:13.864Z,50.23
2022-07-27T21:05:47.205Z,50.08
2022-07-27T21:08:20.620Z,50.06
2022-07-27T21:10:54.229Z,50.14
2022-07-27T21:13:28.538Z,49.99
2022-07-27T21:16:02.092Z,50.16
2022-07-27T21:18:36.140Z,50.18
2022-07-27T21:21:09.349Z,50.12
2022-07-27T21:24:00.298Z,50.10
2022-07-27T21:26:36.383Z,49.96
2022-07-27T21:29:10.975Z,49.95
2022-07-27T21:31:49.168Z,49.77
2022-07-27T21:34:24.535Z,49.71
2022-07-27T21:36:57.789Z,49.80
2022-07-27T21:39:31.681Z,49.68
2022-07-27T21:42:05.447Z,49.63
2022-07-27T21:44:38.967Z,49.60
2022-07-27T21:47:14.405Z,49.72
2022-07-27T21:49:48.206Z,49.67
2022-07-27T21:52:21.733Z,49.70
2022-07-27T21:54:55.651Z,49.60
2022-07-27T21:57:29.208Z,49.53
2022-07-27T22:00:02.606Z,49.45
2022-07-27T22:02:37.770Z,49.29
2022-07-27T22:05:12.147Z,49.12
2022-07-27T22:07:45.592Z,49.09
2022-07-27T22:10:59.642Z,49.14
2022-07-27T22:13:36.108Z,49.21
2022-07-27T22:16:13.286Z,49.35
2022-07-27T22:18:47.531Z,49.34
2022-07-27T22:21:21.545Z,49.21
2022-07-27T22:23:55.328Z,49.11
2022-07-27T22:26:29.038Z,49.20
2022-07-27T22:29:02.743Z,49.16
2022-07-27T22:31:36.417Z,49.32
2022-07-27T22:34:10.450Z,49.40
2022-07-27T22:36:44.346Z,49.39
2022-07-27T22:39:18.669Z,49.60
2022-07-27T22:41:52.096Z,49.71
2022-07-27T22:44:25.585Z,49.62
2022-07-27T22:46:59.259Z,49.63
2022-07-27T22:49:32.506Z,49.70
2022-07-27T22:52:06.462Z,49.91
2022-07-27T22:54:40.309Z,50.01
2022-07-27T22:57:14.135Z,50.15
2022-07-27T22:59:47.153Z,50.02
2022-07-27T23:02:21.249Z,50.07
2022-07-27T23:04:56.660Z,50.17
2022-07-27T23:07:30.362Z,50.28
2022-07-27T23:10:03.887Z,50.23
2022-07-27T23:12:37.043Z,50.26
2022-07-27T23:15:11.976Z,50.24
2022-07-27T23:17:45.412Z,50.39
2022-07-27T23:20:19.061Z,50.49
2022-07-27T23:22:52.681Z,50.41
2022-07-27T23:25:36.285Z,50.54
2022-07-27T23:28:10.178Z,50.52
2022-07-27T23:30:44.046Z,50.54
2022-07-27T23:33:17.657Z,50.55
2022-07-27T23:35:51.425Z,50.53
2022-07-27T23:38:24.692Z,50.46
2022-07-27T23:40:58.289Z,50.54
2022-07-27T23:43:31.657Z,50.65
2022-07-27T23:46:04.966Z,50.68
2022-07-27T23:48:38.775Z,50.69
2022-07-27T23:51:17.128Z,50.43
2022-07-27T23:53:50.789Z,50.66
2022-07-27T23:56:24.143Z,50.84
2022-07-27T23:58:57.850Z,50.82
